Time;durP1;ratioP1;P1;durP2;ratioP2;P2;SDS_P1;SDS_P2;PMS_P1;PMS_P2;Temp;Humidity;BMP_temperature;BMP_pressure;BME280_temperature;BME280_humidity;BME280_pressure;Samples;Min_cycle;Max_cycle;Signal;HPM_P1;HPM_P2
2023/05/26 00:01:46;;;;;;;0.40;0.20;;;;;;;15.66;100.00;95374.88;5011443;28;20892;-60
2023/05/26 00:04:16;;;;;;;0.40;0.30;;;;;;;15.82;100.00;95349.41;5011627;28;21152;-60
2023/05/26 00:06:46;;;;;;;0.40;0.20;;;;;;;15.90;100.00;95354.03;5011486;28;20436;-60
2023/05/26 00:09:15;;;;;;;0.37;0.20;;;;;;;15.77;100.00;95352.19;5011590;28;20440;-61
2023/05/26 00:11:44;;;;;;;0.40;0.30;;;;;;;15.90;100.00;95340.66;5011293;28;20959;-60
2023/05/26 00:14:14;;;;;;;2.20;0.70;;;;;;;16.07;100.00;95340.00;5011528;28;20435;-60
2023/05/26 00:16:42;;;;;;;0.40;0.20;;;;;;;15.94;100.00;95335.53;5011142;28;20440;-60
2023/05/26 00:19:12;;;;;;;0.40;0.30;;;;;;;16.04;100.00;95336.06;5011465;28;20522;-60
2023/05/26 00:21:40;;;;;;;0.40;0.30;;;;;;;15.97;100.00;95334.91;5011585;28;20451;-60
2023/05/26 00:24:08;;;;;;;0.40;0.30;;;;;;;16.06;100.00;95328.53;5011252;28;20848;-60
2023/05/26 00:26:38;;;;;;;0.40;0.30;;;;;;;16.04;100.00;95336.06;5011412;28;20448;-60
2023/05/26 00:29:06;;;;;;;0.70;0.60;;;;;;;15.93;100.00;95340.06;5011338;28;20452;-60
2023/05/26 00:31:55;;;;;;;0.40;0.30;;;;;;;16.05;100.00;95336.84;5010986;28;20819;-59
2023/05/26 00:34:23;;;;;;;0.40;0.30;;;;;;;15.85;100.00;95317.53;5011074;28;20452;-59
2023/05/26 00:36:52;;;;;;;0.87;0.40;;;;;;;15.36;100.00;95338.06;5011209;28;20440;-60
2023/05/26 00:39:20;;;;;;;0.40;0.30;;;;;;;15.31;100.00;95338.94;5011477;28;20482;-60
2023/05/26 00:41:50;;;;;;;0.40;0.30;;;;;;;15.67;100.00;95347.06;5014688;28;20990;-59
2023/05/26 00:44:18;;;;;;;1.73;0.80;;;;;;;15.82;100.00;95341.38;5014447;28;20444;-59
2023/05/26 00:46:47;;;;;;;0.40;0.30;;;;;;;15.93;100.00;95340.06;5014668;28;20447;-60
2023/05/26 00:49:16;;;;;;;0.40;0.30;;;;;;;15.97;100.00;95342.91;5001707;28;20515;-59
2023/05/26 00:51:45;;;;;;;0.40;0.30;;;;;;;15.81;100.00;95340.59;5014541;28;20476;-59
2023/05/26 00:54:14;;;;;;;0.40;0.40;;;;;;;15.35;100.00;95353.31;5014655;28;20498;-60
2023/05/26 00:56:44;;;;;;;0.40;0.30;;;;;;;15.62;100.00;95349.84;5014546;28;20494;-60
2023/05/26 00:59:15;;;;;;;0.50;0.30;;;;;;;15.48;100.00;95344.53;5014387;28;20444;-60
2023/05/26 01:01:44;;;;;;;2.10;0.40;;;;;;;15.45;100.00;95342.44;5014095;28;20502;-60
2023/05/26 01:04:13;;;;;;;0.70;0.60;;;;;;;15.64;100.00;95342.31;5014743;28;20514;-60
2023/05/26 01:06:44;;;;;;;0.50;0.30;;;;;;;15.53;100.00;95351.63;5014134;28;20476;-60
2023/05/26 01:09:16;;;;;;;0.40;0.30;;;;;;;15.82;100.00;95346.72;5014288;28;20475;-60
2023/05/26 01:11:48;;;;;;;0.50;0.30;;;;;;;16.02;100.00;95348.16;5014156;28;20436;-60
2023/05/26 01:14:23;;;;;;;0.50;0.50;;;;;;;15.98;100.00;95347.19;5014201;28;20440;-60
2023/05/26 01:16:58;;;;;;;0.73;0.40;;;;;;;16.06;100.00;95349.13;5014231;28;20479;-60
2023/05/26 01:20:00;;;;;;;0.80;0.80;;;;;;;15.79;100.00;95350.78;5014210;28;20908;-60
2023/05/26 01:22:45;;;;;;;0.40;0.40;;;;;;;15.93;100.00;95355.31;5005352;28;20448;-59
2023/05/26 01:25:21;;;;;;;0.40;0.30;;;;;;;16.00;100.00;95350.34;5013526;28;20483;-60
2023/05/26 01:28:05;;;;;;;0.40;0.20;;;;;;;16.08;100.00;95346.94;5013579;28;20950;-60
2023/05/26 01:30:35;;;;;;;0.40;0.20;;;;;;;16.16;100.00;95348.91;5013694;28;20480;-60
2023/05/26 01:33:04;;;;;;;0.33;0.27;;;;;;;16.21;100.00;95341.56;5013918;28;21006;-61
2023/05/26 01:35:32;;;;;;;0.40;0.40;;;;;;;16.27;100.00;95344.88;5013718;28;20451;-59
2023/05/26 01:38:02;;;;;;;0.40;0.30;;;;;;;16.24;100.00;95342.84;5013734;28;20444;-60
2023/05/26 01:40:30;;;;;;;0.40;0.30;;;;;;;16.37;100.00;95340.09;5013524;28;20468;-60
2023/05/26 01:43:03;;;;;;;0.40;0.20;;;;;;;16.41;100.00;95333.03;5014005;28;20944;-60
2023/05/26 01:45:37;;;;;;;0.40;0.30;;;;;;;15.86;100.00;95337.03;5013416;28;20790;-60
2023/05/26 01:48:08;;;;;;;0.40;0.30;;;;;;;15.66;100.00;95346.25;5013816;28;20857;-60
2023/05/26 01:50:46;;;;;;;0.50;0.40;;;;;;;15.35;100.00;95355.19;5013727;28;20444;-60
2023/05/26 01:53:18;;;;;;;0.40;0.30;;;;;;;15.23;100.00;95348.44;5013891;28;20440;-60
2023/05/26 01:55:51;;;;;;;0.60;0.30;;;;;;;15.65;100.00;95344.69;5000802;28;20859;-60
2023/05/26 01:58:22;;;;;;;0.53;0.50;;;;;;;15.73;100.00;95351.22;5013439;28;20475;-62
2023/05/26 02:00:52;;;;;;;0.40;0.30;;;;;;;15.57;100.00;95357.97;5013240;28;20490;-61
2023/05/26 02:03:20;;;;;;;0.87;0.87;;;;;;;15.42;100.00;95348.34;5013510;28;20522;-59
2023/05/26 02:05:49;;;;;;;0.63;0.30;;;;;;;15.66;100.00;95346.25;5013336;28;20494;-60
2023/05/26 02:08:17;;;;;;;0.50;0.40;;;;;;;15.36;100.00;95360.22;5012957;28;20523;-59
2023/05/26 02:10:46;;;;;;;0.90;0.90;;;;;;;15.01;100.00;95356.38;5013363;28;20880;-60
2023/05/26 02:13:14;;;;;;;11.63;0.63;;;;;;;15.11;100.00;95366.06;5012920;28;20953;-59
2023/05/26 02:15:44;;;;;;;0.53;0.40;;;;;;;15.08;100.00;95372.78;5012851;28;20487;-60
2023/05/26 02:18:15;;;;;;;2.80;0.60;;;;;;;15.03;100.00;95364.06;5012570;28;20436;-60
2023/05/26 02:20:43;;;;;;;0.67;0.67;;;;;;;15.02;100.00;95367.84;5012775;28;20478;-60
2023/05/26 02:23:12;;;;;;;0.40;0.30;;;;;;;15.23;100.00;95364.47;5012255;28;20447;-59
2023/05/26 02:25:40;;;;;;;0.60;0.43;;;;;;;15.43;100.00;95351.81;5012851;28;20459;-59
2023/05/26 02:28:09;;;;;;;0.40;0.30;;;;;;;15.26;100.00;95353.22;5012490;28;20476;-60
2023/05/26 02:30:37;;;;;;;0.53;0.53;;;;;;;14.95;100.00;95352.19;5012872;28;20448;-59
2023/05/26 02:33:07;;;;;;;0.63;0.57;;;;;;;14.80;100.00;95346.38;5012491;28;20506;-59
2023/05/26 02:35:35;;;;;;;0.40;0.20;;;;;;;14.98;100.00;95346.28;5012463;28;20527;-59
2023/05/26 02:38:03;;;;;;;0.50;0.30;;;;;;;15.06;100.00;95345.59;5012337;28;20448;-60
2023/05/26 02:40:31;;;;;;;0.40;0.30;;;;;;;15.12;100.00;95340.94;5012355;28;20472;-60
2023/05/26 02:43:00;;;;;;;0.40;0.30;;;;;;;15.08;100.00;95323.94;5012394;28;20440;-59
2023/05/26 02:45:28;;;;;;;0.97;0.70;;;;;;;14.83;100.00;95341.22;5012113;28;20978;-59
2023/05/26 02:47:56;;;;;;;0.60;0.53;;;;;;;14.51;100.00;95327.94;5012197;28;20451;-60
2023/05/26 02:50:26;;;;;;;0.50;0.40;;;;;;;14.33;100.00;95355.44;5012229;28;20472;-59
2023/05/26 02:52:55;;;;;;;0.40;0.40;;;;;;;14.56;100.00;95352.63;5012577;28;20439;-59
2023/05/26 02:55:24;;;;;;;0.70;0.53;;;;;;;14.48;100.00;95353.31;5011992;28;20452;-59
2023/05/26 02:57:53;;;;;;;0.50;0.40;;;;;;;14.47;100.00;95359.72;5012459;28;20452;-61
2023/05/26 03:00:21;;;;;;;0.60;0.40;;;;;;;14.83;100.00;95364.44;5012172;28;20542;-60
2023/05/26 03:02:49;;;;;;;1.37;0.50;;;;;;;14.78;100.00;95360.00;5011873;28;20441;-61
2023/05/26 03:05:18;;;;;;;0.40;0.30;;;;;;;14.86;100.00;95369.97;5012213;28;20441;-61
2023/05/26 03:07:48;;;;;;;0.80;0.77;;;;;;;15.28;100.00;95361.69;5012393;28;20523;-60
2023/05/26 03:10:16;;;;;;;0.60;0.37;;;;;;;15.47;100.00;95366.19;5012216;28;20440;-61
2023/05/26 03:12:44;;;;;;;0.60;0.60;;;;;;;14.86;100.00;95374.53;5012341;28;20516;-61
2023/05/26 03:15:13;;;;;;;0.40;0.40;;;;;;;14.86;100.00;95380.66;5012103;28;20905;-61
2023/05/26 03:17:42;;;;;;;0.50;0.40;;;;;;;14.52;100.00;95380.19;5011920;28;20452;-61
2023/05/26 03:20:11;;;;;;;0.40;0.30;;;;;;;14.78;100.00;95375.19;4998986;28;21026;-60
2023/05/26 03:22:40;;;;;;;0.60;0.50;;;;;;;14.56;100.00;95379.31;5011853;28;20467;-60
2023/05/26 03:25:19;;;;;;;0.50;0.50;;;;;;;14.72;100.00;95377.19;5011533;28;20475;-59
2023/05/26 03:27:48;;;;;;;0.50;0.50;;;;;;;15.06;100.00;95374.94;5011921;28;20858;-60
2023/05/26 03:30:16;;;;;;;0.40;0.30;;;;;;;15.31;100.00;95365.66;5011854;28;20467;-60
2023/05/26 03:32:44;;;;;;;0.40;0.40;;;;;;;14.99;100.00;95374.56;5011581;28;20472;-60
2023/05/26 03:35:13;;;;;;;1.53;0.50;;;;;;;14.83;100.00;95375.91;5011633;28;20972;-55
2023/05/26 03:37:41;;;;;;;0.50;0.33;;;;;;;14.73;100.00;95367.28;5011677;28;20498;-55
2023/05/26 03:40:10;;;;;;;0.60;0.40;;;;;;;15.27;100.00;95367.34;5010957;28;20444;-56
2023/05/26 03:42:40;;;;;;;0.50;0.30;;;;;;;15.26;100.00;95373.75;5011626;28;20484;-55
2023/05/26 03:45:09;;;;;;;0.50;0.30;;;;;;;15.51;100.00;95381.31;5011645;28;20447;-55
2023/05/26 03:47:37;;;;;;;0.40;0.40;;;;;;;15.51;100.00;95386.66;5011518;28;20440;-56
2023/05/26 03:50:07;;;;;;;0.47;0.43;;;;;;;15.32;100.00;95369.94;5011488;28;20527;-56
2023/05/26 03:52:35;;;;;;;0.40;0.20;;;;;;;15.20;100.00;95333.03;5011646;28;20448;-56
2023/05/26 03:55:05;;;;;;;0.50;0.47;;;;;;;15.16;100.00;95365.94;5011305;28;20471;-55
2023/05/26 03:57:34;;;;;;;0.50;0.40;;;;;;;15.11;100.00;95318.78;5011781;28;20436;-55
2023/05/26 04:00:07;;;;;;;0.40;0.27;;;;;;;15.72;100.00;95382.47;5011211;28;20448;-58
2023/05/26 04:02:35;;;;;;;0.47;0.40;;;;;;;15.08;100.00;95388.78;5011713;28;20484;-59
2023/05/26 04:05:04;;;;;;;1.30;1.27;;;;;;;14.63;100.00;95393.06;5011135;28;20444;-59
2023/05/26 04:07:32;;;;;;;2.00;1.10;;;;;;;14.57;100.00;95398.78;5011594;28;21001;-58
2023/05/26 04:10:01;;;;;;;2.60;0.70;;;;;;;14.80;100.00;95391.72;5011640;28;20567;-59
2023/05/26 04:12:29;;;;;;;1.00;0.30;;;;;;;15.29;100.00;95386.53;5011409;28;20479;-59
2023/05/26 04:14:57;;;;;;;0.60;0.40;;;;;;;15.59;100.00;95395.84;5012788;28;20839;-59
2023/05/26 04:17:27;;;;;;;6.93;1.70;;;;;;;15.39;100.00;95388.22;5015258;28;20471;-59
2023/05/26 04:19:55;;;;;;;0.40;0.30;;;;;;;15.56;100.00;95385.78;5015228;28;20539;-59
2023/05/26 04:22:25;;;;;;;0.50;0.37;;;;;;;15.74;100.00;95385.63;5015409;28;20472;-59
2023/05/26 04:24:53;;;;;;;0.40;0.30;;;;;;;15.69;100.00;95393.75;5014542;28;20476;-58
2023/05/26 04:27:24;;;;;;;0.40;0.30;;;;;;;15.69;100.00;95383.06;5015251;28;20829;-58
2023/05/26 04:29:53;;;;;;;0.40;0.30;;;;;;;15.84;100.00;95373.94;5014853;28;20871;-60
2023/05/26 04:32:21;;;;;;;0.40;0.40;;;;;;;15.71;100.00;95358.75;5014659;28;20451;-59
2023/05/26 04:34:52;;;;;;;0.40;0.30;;;;;;;15.78;100.00;95380.50;5014905;28;20440;-59
2023/05/26 04:37:20;;;;;;;0.50;0.47;;;;;;;15.88;100.00;95374.94;5014878;28;20868;-60
2023/05/26 04:39:48;;;;;;;0.40;0.30;;;;;;;15.87;100.00;95378.69;5014537;28;20440;-60
2023/05/26 04:42:19;;;;;;;0.40;0.30;;;;;;;15.62;100.00;95384.56;5014702;28;20554;-59
2023/05/26 04:44:47;;;;;;;0.57;0.57;;;;;;;15.54;100.00;95382.59;5014913;28;20440;-59
2023/05/26 04:47:16;;;;;;;0.40;0.40;;;;;;;15.53;100.00;95386.38;5014378;28;20468;-59
2023/05/26 04:49:45;;;;;;;0.77;0.30;;;;;;;15.64;100.00;95390.41;5014981;28;20571;-61
2023/05/26 04:52:15;;;;;;;0.97;0.33;;;;;;;15.68;100.00;95392.19;5014214;28;20440;-58
2023/05/26 04:54:43;;;;;;;1.07;0.70;;;;;;;15.68;100.00;95380.72;5014569;28;20447;-59
2023/05/26 04:59:57;;;;;;;0.50;0.50;;;;;;;16.11;100.00;95392.59;5014323;28;20443;-58
2023/05/26 05:02:26;;;;;;;0.87;0.40;;;;;;;16.19;100.00;95386.50;5014211;28;20476;-58
2023/05/26 05:04:55;;;;;;;1.33;1.23;;;;;;;16.19;100.00;95391.84;5013654;28;20804;-60
2023/05/26 05:07:24;;;;;;;1.33;1.23;;;;;;;16.31;100.00;95381.44;5014287;28;20448;-59
2023/05/26 05:09:53;;;;;;;0.50;0.30;;;;;;;16.26;100.00;95383.44;5013745;28;20440;-59
2023/05/26 05:12:21;;;;;;;0.50;0.30;;;;;;;16.00;100.00;95385.88;5013993;28;20445;-59
2023/05/26 05:14:50;;;;;;;0.50;0.30;;;;;;;16.29;100.00;95386.28;5013683;28;20940;-59
2023/05/26 05:17:18;;;;;;;1.00;0.60;;;;;;;16.67;100.00;95377.94;5013892;28;20449;-59
2023/05/26 05:19:46;;;;;;;0.40;0.30;;;;;;;16.76;100.00;95376.88;5013974;28;20824;-59
2023/05/26 05:22:21;;;;;;;0.53;0.53;;;;;;;17.00;100.00;95381.91;5014164;28;20523;-60
2023/05/26 05:24:50;;;;;;;0.40;0.40;;;;;;;17.13;100.00;95372.97;5013360;28;20984;-60
2023/05/26 05:27:19;;;;;;;0.43;0.40;;;;;;;17.32;100.00;95373.53;5013871;28;20466;-60
2023/05/26 05:29:47;;;;;;;0.73;0.73;;;;;;;17.51;100.00;95374.06;5013500;28;20451;-60
2023/05/26 05:32:16;;;;;;;0.50;0.40;;;;;;;17.57;100.00;95372.06;5013531;28;20948;-61
2023/05/26 05:34:44;;;;;;;0.50;0.30;;;;;;;17.78;100.00;95362.34;5001263;28;20896;-61
2023/05/26 05:37:12;;;;;;;0.50;0.33;;;;;;;17.88;100.00;95371.97;5013548;28;21002;-60
2023/05/26 05:39:41;;;;;;;0.60;0.60;;;;;;;17.63;100.00;95373.50;5021250;28;20935;-60
2023/05/26 05:42:10;;;;;;;0.43;0.37;;;;;;;17.81;100.00;95367.06;5013762;28;20487;-60
2023/05/26 05:44:39;;;;;;;0.40;0.30;;;;;;;17.80;100.00;95365.50;5013670;28;20436;-60
2023/05/26 05:47:07;;;;;;;0.80;0.40;;;;;;;17.37;100.00;95373.41;5013771;28;20799;-60
2023/05/26 05:49:36;;;;;;;1.03;0.73;;;;;;;16.99;100.00;95372.28;5013837;28;20859;-60
2023/05/26 05:52:04;;;;;;;0.60;0.53;;;;;;;17.04;100.00;95375.63;5013170;28;20449;-61
2023/05/26 05:54:33;;;;;;;0.87;0.87;;;;;;;17.12;100.00;95382.13;5013797;28;20443;-61
2023/05/26 05:57:01;;;;;;;0.50;0.50;;;;;;;17.24;100.00;95378.84;5013022;28;20941;-61
2023/05/26 05:59:31;;;;;;;1.40;0.90;;;;;;;17.55;100.00;95374.28;5013097;28;20476;-62
2023/05/26 06:01:59;;;;;;;0.70;0.70;;;;;;;17.88;100.00;95380.00;5013300;28;20476;-62
2023/05/26 06:04:27;;;;;;;0.50;0.40;;;;;;;18.20;100.00;95376.88;5013196;28;20440;-61
2023/05/26 06:06:57;;;;;;;0.50;0.43;;;;;;;18.52;100.00;95364.94;5013061;28;20444;-62
2023/05/26 06:09:25;;;;;;;0.80;0.80;;;;;;;18.15;100.00;95369.00;5013102;28;20944;-61
2023/05/26 06:11:53;;;;;;;0.80;0.80;;;;;;;18.38;100.00;95357.00;5012720;28;20785;-53
2023/05/26 06:14:22;;;;;;;1.07;0.90;;;;;;;18.87;100.00;95371.81;5012879;28;20476;-54
2023/05/26 06:16:51;;;;;;;0.90;0.53;;;;;;;19.57;100.00;95363.97;5012834;28;20449;-54
2023/05/26 06:19:20;;;;;;;0.80;0.80;;;;;;;19.39;100.00;95365.16;5012879;28;20464;-54
2023/05/26 06:21:50;;;;;;;0.73;0.73;;;;;;;19.43;100.00;95355.34;5000186;28;20452;-54
2023/05/26 06:24:18;;;;;;;1.13;1.03;;;;;;;19.29;100.00;95353.97;5012766;28;20879;-54
2023/05/26 06:26:47;;;;;;;1.00;1.00;;;;;;;19.41;100.00;95364.84;5011977;28;20444;-54
2023/05/26 06:29:16;;;;;;;0.50;0.43;;;;;;;19.64;100.00;95350.81;5012607;28;20501;-54
2023/05/26 06:31:45;;;;;;;2.50;1.10;;;;;;;19.36;100.00;95365.78;5012962;28;20502;-62
2023/05/26 06:34:15;;;;;;;2.40;1.30;;;;;;;19.37;100.00;95359.34;5012489;28;20543;-62
2023/05/26 06:36:43;;;;;;;1.53;1.43;;;;;;;19.47;95.08;95366.25;5012057;28;20494;-63
2023/05/26 06:39:11;;;;;;;0.70;0.60;;;;;;;19.44;95.50;95353.44;5010538;28;20440;-62
2023/05/26 06:41:39;;;;;;;0.80;0.67;;;;;;;19.51;94.49;95361.78;4992934;28;21043;-63
2023/05/26 06:44:08;;;;;;;11.27;0.80;;;;;;;20.25;92.94;95352.00;5000263;28;20476;-63
2023/05/26 06:46:36;;;;;;;0.93;0.40;;;;;;;21.01;93.42;95346.19;5009121;28;20490;-61
2023/05/26 06:49:05;;;;;;;0.60;0.50;;;;;;;20.84;93.38;95357.97;5008361;28;20460;-61
2023/05/26 06:51:34;;;;;;;1.17;1.07;;;;;;;20.88;92.22;95353.47;4992585;28;20495;-60
2023/05/26 06:54:03;;;;;;;0.77;0.70;;;;;;;20.71;94.55;95353.66;4992785;28;20894;-60
2023/05/26 06:56:31;;;;;;;0.70;0.60;;;;;;;20.45;91.35;95363.06;4992697;28;20949;-60
2023/05/26 06:58:59;;;;;;;4.90;1.77;;;;;;;20.02;98.67;95358.78;4993073;28;20429;-61
2023/05/26 07:01:28;;;;;;;0.77;0.77;;;;;;;20.05;100.00;95362.72;4992671;28;20499;-60
2023/05/26 07:03:56;;;;;;;0.73;0.73;;;;;;;19.97;99.41;95367.06;4992453;28;21008;-60
2023/05/26 07:06:24;;;;;;;0.73;0.50;;;;;;;20.33;98.96;95361.13;5011695;28;20515;-60
2023/05/26 07:09:07;;;;;;;0.77;0.50;;;;;;;19.91;100.00;95370.28;5012966;28;20444;-60
2023/05/26 07:11:36;;;;;;;0.40;0.40;;;;;;;20.63;95.52;95353.72;5011748;28;20531;-60
2023/05/26 07:14:05;;;;;;;0.83;0.70;;;;;;;20.20;96.31;95352.16;5011656;28;20448;-60
2023/05/26 07:16:33;;;;;;;0.60;0.50;;;;;;;20.37;100.00;95356.66;5012194;28;20444;-60
2023/05/26 07:19:02;;;;;;;0.60;0.40;;;;;;;20.76;93.74;95349.97;5011873;28;20869;-61
2023/05/26 07:21:31;;;;;;;0.40;0.40;;;;;;;20.68;90.61;95346.22;5012025;28;20832;-61
2023/05/26 07:23:59;;;;;;;0.50;0.30;;;;;;;20.36;97.72;95338.16;5011417;28;20496;-60
2023/05/26 07:26:29;;;;;;;0.67;0.67;;;;;;;20.04;96.18;95347.69;5011476;28;20441;-61
2023/05/26 07:28:57;;;;;;;0.43;0.43;;;;;;;20.25;97.05;95351.22;5011582;28;20949;-60
2023/05/26 07:31:26;;;;;;;1.07;0.97;;;;;;;19.88;100.00;95303.69;5011857;28;20452;-61
2023/05/26 07:33:54;;;;;;;4.10;0.40;;;;;;;20.06;100.00;95351.63;5011349;28;20448;-60
2023/05/26 07:36:22;;;;;;;0.47;0.40;;;;;;;20.17;99.64;95325.13;5011628;28;20499;-59
2023/05/26 07:38:51;;;;;;;0.40;0.30;;;;;;;20.50;99.67;95346.72;5012064;28;20444;-60
2023/05/26 07:41:21;;;;;;;0.40;0.33;;;;;;;20.50;98.14;95352.09;5011282;28;20448;-59
2023/05/26 07:43:50;;;;;;;0.50;0.50;;;;;;;19.89;100.00;95359.03;5011439;28;20491;-60
2023/05/26 07:46:19;;;;;;;0.40;0.30;;;;;;;20.35;100.00;95347.31;5011524;28;20488;-59
2023/05/26 07:48:48;;;;;;;1.70;1.50;;;;;;;20.27;100.00;95351.66;5012684;28;20483;-60
2023/05/26 07:51:16;;;;;;;0.67;0.67;;;;;;;20.30;100.00;95310.63;5015106;28;20475;-59
2023/05/26 07:53:44;;;;;;;2.70;0.47;;;;;;;20.64;98.96;95336.47;5015853;28;20444;-60
2023/05/26 07:56:13;;;;;;;0.80;0.77;;;;;;;21.13;90.77;95335.47;5015306;28;20456;-60
2023/05/26 07:58:41;;;;;;;0.70;0.60;;;;;;;21.31;87.64;95334.13;5015333;28;20814;-60
2023/05/26 08:01:11;;;;;;;0.50;0.43;;;;;;;21.24;87.14;95330.44;5015432;28;20444;-59
2023/05/26 08:03:39;;;;;;;0.77;0.77;;;;;;;21.29;87.07;95330.22;5015226;28;20563;-58
2023/05/26 08:06:08;;;;;;;0.50;0.30;;;;;;;21.48;86.02;95330.41;5015395;28;20471;-58
2023/05/26 08:08:53;;;;;;;0.53;0.50;;;;;;;21.84;83.04;95329.59;5015081;28;20451;-59
2023/05/26 08:11:22;;;;;;;0.70;0.70;;;;;;;22.33;76.43;95317.59;5015055;28;20506;-59
2023/05/26 08:13:51;;;;;;;0.40;0.30;;;;;;;22.39;78.93;95318.91;5015303;28;20510;-60
2023/05/26 08:16:21;;;;;;;0.70;0.53;;;;;;;22.06;79.51;95316.44;5014894;28;20444;-60
2023/05/26 08:18:49;;;;;;;0.40;0.40;;;;;;;22.22;79.13;95313.00;5015186;28;20950;-60
2023/05/26 08:21:18;;;;;;;2.07;1.87;;;;;;;21.47;79.87;95278.41;5015230;28;20514;-59
2023/05/26 08:23:46;;;;;;;0.50;0.40;;;;;;;21.72;81.57;95316.94;5014609;28;21000;-60
2023/05/26 08:26:15;;;;;;;0.60;0.40;;;;;;;22.22;78.41;95304.91;5015087;28;20490;-60
2023/05/26 08:28:43;;;;;;;0.47;0.43;;;;;;;22.23;78.19;95309.19;5015027;28;20447;-60
2023/05/26 08:31:12;;;;;;;1.13;0.40;;;;;;;22.21;78.43;95292.56;5015175;28;20499;-60
2023/05/26 08:33:42;;;;;;;0.50;0.30;;;;;;;22.25;77.84;95307.72;5014718;28;20450;-60
2023/05/26 08:36:11;;;;;;;0.60;0.60;;;;;;;22.44;77.67;95297.06;5014773;28;20940;-60
2023/05/26 08:38:39;;;;;;;1.00;0.90;;;;;;;22.45;79.36;95309.44;5014818;28;20514;-59
2023/05/26 08:41:10;;;;;;;1.83;1.73;;;;;;;21.95;84.41;95309.97;5014342;28;20452;-61
2023/05/26 08:43:45;;;;;;;0.50;0.40;;;;;;;22.00;85.89;95317.03;5012904;28;20474;-59
2023/05/26 08:46:27;;;;;;;0.90;0.70;;;;;;;21.32;86.26;95319.56;5012338;28;20444;-60
2023/05/26 08:48:58;;;;;;;0.70;0.60;;;;;;;21.65;89.41;95319.44;5012965;28;20447;-59
2023/05/26 08:51:30;;;;;;;1.10;1.10;;;;;;;21.51;87.97;95330.53;5012553;28;20444;-60
2023/05/26 08:53:58;;;;;;;0.50;0.40;;;;;;;21.73;88.04;95326.59;5012881;28;20506;-60
2023/05/26 08:56:27;;;;;;;1.00;1.00;;;;;;;21.43;82.56;95328.75;5012678;28;20506;-59
2023/05/26 08:59:00;;;;;;;1.13;0.90;;;;;;;20.72;84.43;95338.28;5014120;28;20449;-59
2023/05/26 09:01:29;;;;;;;0.73;0.67;;;;;;;20.59;87.75;95328.59;5013413;28;20444;-60
2023/05/26 09:03:58;;;;;;;0.47;0.33;;;;;;;20.73;85.82;95276.00;5014226;28;20533;-60
2023/05/26 09:06:27;;;;;;;0.97;0.60;;;;;;;21.42;83.67;95316.41;5014147;28;20523;-61
2023/05/26 09:08:55;;;;;;;0.60;0.53;;;;;;;21.29;85.05;95309.44;5014016;28;20444;-59
2023/05/26 09:11:25;;;;;;;0.90;0.60;;;;;;;21.96;82.33;95313.44;5014360;28;20448;-60
2023/05/26 09:13:55;;;;;;;0.47;0.37;;;;;;;22.49;82.29;95296.06;5013985;28;20448;-60
2023/05/26 09:16:25;;;;;;;0.50;0.40;;;;;;;23.46;81.59;95290.06;5013892;28;20448;-61
2023/05/26 09:19:01;;;;;;;0.57;0.50;;;;;;;24.77;78.19;95288.97;5013813;28;20444;-62
2023/05/26 09:21:30;;;;;;;0.50;0.50;;;;;;;25.37;74.81;95281.09;5014141;28;20506;-60
2023/05/26 09:24:00;;;;;;;0.60;0.53;;;;;;;26.15;70.10;95281.13;5013556;28;20546;-59
2023/05/26 09:26:30;;;;;;;0.93;0.50;;;;;;;26.90;62.71;95272.69;5014037;28;20451;-59
2023/05/26 09:28:59;;;;;;;1.07;0.87;;;;;;;26.93;60.24;95268.44;5013527;28;20491;-59
2023/05/26 09:31:38;;;;;;;0.53;0.53;;;;;;;26.72;58.97;95276.34;5013865;28;21043;-59
2023/05/26 09:34:09;;;;;;;1.03;0.93;;;;;;;26.94;60.46;95278.16;5000641;28;20939;-59
2023/05/26 09:36:38;;;;;;;0.80;0.80;;;;;;;26.10;66.72;95283.34;5013451;28;20440;-59
2023/05/26 09:39:09;;;;;;;0.73;0.73;;;;;;;25.85;69.32;95272.16;5013771;28;20514;-60
2023/05/26 09:41:38;;;;;;;0.70;0.53;;;;;;;25.31;71.11;95275.19;5013353;28;20444;-59
2023/05/26 09:44:12;;;;;;;0.80;0.77;;;;;;;25.34;70.37;95269.06;5013623;28;20527;-60
2023/05/26 09:46:42;;;;;;;0.60;0.60;;;;;;;25.35;71.10;95276.03;5013448;28;20499;-60
2023/05/26 09:49:16;;;;;;;0.60;0.60;;;;;;;25.20;67.92;95261.47;5013383;28;20436;-60
2023/05/26 09:51:45;;;;;;;0.57;0.57;;;;;;;24.56;67.07;95272.31;5013002;28;20451;-60
2023/05/26 09:54:28;;;;;;;0.50;0.50;;;;;;;24.93;66.65;95264.47;5013239;28;20444;-60
2023/05/26 09:57:01;;;;;;;2.10;2.00;;;;;;;24.38;66.71;95260.34;5013436;28;20448;-60
2023/05/26 09:59:36;;;;;;;0.60;0.40;;;;;;;24.14;67.47;95185.59;5013121;28;20827;-59
2023/05/26 10:02:16;;;;;;;0.40;0.30;;;;;;;24.78;67.24;95241.78;5013010;28;20533;-59
2023/05/26 10:04:47;;;;;;;0.40;0.30;;;;;;;24.91;66.61;95237.75;5012758;28;20476;-59
2023/05/26 10:07:18;;;;;;;0.50;0.47;;;;;;;24.60;64.64;95230.59;5013065;28;20527;-59
2023/05/26 10:09:52;;;;;;;1.00;0.90;;;;;;;24.21;63.95;95234.47;5012746;28;20440;-59
2023/05/26 10:12:26;;;;;;;1.37;0.40;;;;;;;24.01;58.19;95227.47;5012841;28;20948;-58
2023/05/26 10:14:55;;;;;;;0.90;0.67;;;;;;;24.47;55.45;95241.94;5012809;28;20440;-58
2023/05/26 10:17:24;;;;;;;0.40;0.40;;;;;;;24.33;60.69;95182.09;5012803;28;20479;-60
2023/05/26 10:19:57;;;;;;;0.40;0.40;;;;;;;24.51;63.58;95242.81;5012678;28;20444;-60
2023/05/26 10:22:29;;;;;;;0.40;0.30;;;;;;;23.43;63.11;95107.59;5012283;28;20437;-59
2023/05/26 10:25:01;;;;;;;0.40;0.30;;;;;;;23.87;68.37;95236.09;5012281;28;20541;-59
2023/05/26 10:27:37;;;;;;;1.70;0.50;;;;;;;23.77;68.69;95239.38;5012672;28;20440;-60
2023/05/26 10:30:10;;;;;;;0.40;0.30;;;;;;;23.79;73.43;95233.59;5012475;28;20448;-60
2023/05/26 10:32:49;;;;;;;0.83;0.83;;;;;;;23.06;80.35;95236.16;5012492;28;20436;-59
2023/05/26 10:35:30;;;;;;;0.40;0.30;;;;;;;23.12;87.82;95218.53;5012172;28;20543;-59
2023/05/26 10:38:12;;;;;;;0.40;0.30;;;;;;;22.89;92.72;95225.69;5012246;28;20807;-58
2023/05/26 10:40:45;;;;;;;0.50;0.50;;;;;;;22.83;97.84;95224.38;5012327;28;20452;-59
2023/05/26 10:43:18;;;;;;;0.40;0.40;;;;;;;22.52;100.00;95201.59;5012128;28;20444;-58
2023/05/26 10:45:51;;;;;;;0.60;0.40;;;;;;;22.81;100.00;95230.16;5012395;28;20487;-58
2023/05/26 10:48:19;;;;;;;0.50;0.40;;;;;;;22.00;100.00;95206.38;5014380;28;20451;-58
2023/05/26 10:51:09;;;;;;;0.50;0.50;;;;;;;22.58;100.00;95219.13;5011970;28;20441;-58
2023/05/26 10:53:42;;;;;;;0.50;0.50;;;;;;;22.31;100.00;95179.44;4999239;28;20464;-58
2023/05/26 10:56:13;;;;;;;0.40;0.30;;;;;;;22.93;100.00;95210.34;5009783;28;20456;-58
2023/05/26 10:58:46;;;;;;;0.50;0.30;;;;;;;23.12;100.00;95199.63;4996901;28;20829;-58
2023/05/26 11:01:16;;;;;;;1.23;0.40;;;;;;;22.73;98.86;95199.47;5017598;28;20451;-58
2023/05/26 11:03:47;;;;;;;0.50;0.50;;;;;;;22.97;94.34;95187.66;4995772;28;20577;-58
2023/05/26 11:06:18;;;;;;;0.57;0.57;;;;;;;23.10;88.49;95185.63;5001273;28;20873;-58
2023/05/26 11:08:48;;;;;;;1.73;0.40;;;;;;;23.51;90.17;95184.28;5012005;28;20436;-58
2023/05/26 11:11:27;;;;;;;0.47;0.30;;;;;;;23.14;82.36;95178.41;5012019;28;20431;-58
2023/05/26 11:14:04;;;;;;;0.40;0.30;;;;;;;23.84;84.05;95158.31;5011760;28;20437;-59
2023/05/26 11:16:35;;;;;;;0.70;0.70;;;;;;;24.36;74.84;95119.81;5011997;28;20455;-59
2023/05/26 11:19:05;;;;;;;0.83;0.83;;;;;;;26.18;70.43;95169.00;5011539;28;20441;-59
2023/05/26 11:21:36;;;;;;;0.40;0.30;;;;;;;26.70;65.24;95148.13;5011812;28;20440;-58
2023/05/26 11:24:06;;;;;;;0.50;0.33;;;;;;;27.00;59.34;95151.50;5011023;28;20487;-60
2023/05/26 11:26:35;;;;;;;0.40;0.30;;;;;;;26.82;54.52;95153.31;5011444;28;20499;-59
2023/05/26 11:29:05;;;;;;;0.40;0.30;;;;;;;26.64;58.69;95146.94;5011570;28;20479;-59
2023/05/26 11:31:33;;;;;;;0.40;0.30;;;;;;;25.64;63.99;95152.41;5011639;28;20479;-59
2023/05/26 11:34:02;;;;;;;0.40;0.30;;;;;;;25.81;70.84;95157.28;5011521;28;20498;-59
2023/05/26 11:36:30;;;;;;;0.63;0.40;;;;;;;25.31;72.28;95163.97;5011804;28;20855;-60
2023/05/26 11:39:03;;;;;;;0.50;0.30;;;;;;;24.72;73.98;95180.81;5011661;28;20527;-60
2023/05/26 11:41:32;;;;;;;0.40;0.30;;;;;;;23.81;77.17;95186.06;5011615;28;20479;-59
2023/05/26 11:44:00;;;;;;;0.50;0.50;;;;;;;22.87;74.58;95200.94;5011411;28;20527;-59
2023/05/26 11:46:30;;;;;;;1.30;1.03;;;;;;;22.58;76.31;95207.53;5011256;28;20562;-58